createdAt,value
2022-11-21T00:00:48.124Z,97826.69
2022-11-21T00:03:17.180Z,97829.84
2022-11-21T00:05:48.579Z,97822.56
2022-11-21T00:08:20.758Z,97841.09
2022-11-21T00:10:49.591Z,97836.44
2022-11-21T00:13:19.924Z,97827.94
2022-11-21T00:15:48.626Z,97826.78
2022-11-21T00:18:17.238Z,97839.72
2022-11-21T00:20:46.508Z,97831.69
2022-11-21T00:23:15.459Z,97843.47
2022-11-21T00:25:45.431Z,97850.53
2022-11-21T00:28:14.011Z,97830.47
2022-11-21T00:30:42.319Z,97833.81
2022-11-21T00:33:10.641Z,97844.75
2022-11-21T00:35:39.236Z,97836.78
2022-11-21T00:38:07.610Z,97835.31
2022-11-21T00:40:37.240Z,97843.72
2022-11-21T00:43:07.166Z,97828.78
2022-11-21T00:45:35.511Z,97841.38
2022-11-21T00:48:04.151Z,97822.25
2022-11-21T00:50:32.556Z,97824.75
2022-11-21T00:53:00.923Z,97820.00
2022-11-21T00:55:29.380Z,97822.78
2022-11-21T00:57:57.627Z,97824.88
2022-11-21T01:00:28.086Z,97808.81
2022-11-21T01:02:56.631Z,97825.72
2022-11-21T01:05:25.424Z,97823.81
2022-11-21T01:07:53.956Z,97825.47
2022-11-21T01:10:22.799Z,97817.94
2022-11-21T01:12:51.055Z,97823.06
2022-11-21T01:15:19.418Z,97821.84
2022-11-21T01:17:49.594Z,97818.38
2022-11-21T01:20:17.883Z,97829.00
2022-11-21T01:22:47.802Z,97819.09
2022-11-21T01:25:16.464Z,97835.94
2022-11-21T01:27:45.276Z,97827.38
2022-11-21T01:30:14.989Z,97825.09
2022-11-21T01:32:43.387Z,97831.81
2022-11-21T01:35:13.196Z,97840.13
2022-11-21T01:37:42.039Z,97834.75
2022-11-21T01:40:11.449Z,97843.66
2022-11-21T01:42:53.330Z,97847.44
2022-11-21T01:45:56.733Z,97845.06
2022-11-21T01:48:29.473Z,97842.63
2022-11-21T01:51:04.819Z,97836.31
2022-11-21T01:53:34.277Z,97840.75
2022-11-21T01:56:03.446Z,97841.03
2022-11-21T01:58:37.037Z,97850.09
2022-11-21T02:01:05.633Z,97847.78
2022-11-21T02:03:38.639Z,97847.78
2022-11-21T02:06:12.394Z,97857.25
2022-11-21T02:08:44.548Z,97852.09
2022-11-21T02:11:20.251Z,97853.56
2022-11-21T02:13:48.730Z,97870.09
2022-11-21T02:16:18.991Z,97878.47
2022-11-21T02:18:47.515Z,97885.75
2022-11-21T02:21:27.786Z,97892.16
2022-11-21T02:24:02.691Z,97885.81
2022-11-21T02:26:34.350Z,97886.38
2022-11-21T02:29:02.795Z,97889.50
2022-11-21T02:31:31.236Z,97898.00
2022-11-21T02:33:59.903Z,97904.75
2022-11-21T02:36:39.014Z,97910.13
2022-11-21T02:39:09.064Z,97908.97
2022-11-21T02:41:45.644Z,97915.78
2022-11-21T02:44:21.763Z,97922.72
2022-11-21T02:46:52.495Z,97915.91
2022-11-21T02:49:29.427Z,97920.63
2022-11-21T02:51:57.904Z,97920.81
2022-11-21T02:54:26.779Z,97921.06
2022-11-21T02:56:57.859Z,97919.38
2022-11-21T02:59:25.945Z,97923.63
2022-11-21T03:01:54.461Z,97929.38
2022-11-21T03:04:23.487Z,97928.34
2022-11-21T03:06:51.987Z,97937.84
2022-11-21T03:09:20.541Z,97936.47
2022-11-21T03:11:49.080Z,97940.88
2022-11-21T03:14:18.957Z,97936.47
2022-11-21T03:16:47.419Z,97940.38
2022-11-21T03:19:15.624Z,97935.63
2022-11-21T03:21:43.754Z,97946.75
2022-11-21T03:24:12.316Z,97955.19
2022-11-21T03:26:40.742Z,97943.94
2022-11-21T03:29:09.764Z,97939.31
2022-11-21T03:31:39.629Z,97943.50
2022-11-21T03:34:09.151Z,97957.72
2022-11-21T03:36:38.020Z,97954.34
2022-11-21T03:39:06.731Z,97961.63
2022-11-21T03:41:35.432Z,97954.84
2022-11-21T03:44:06.737Z,97959.53
2022-11-21T03:46:39.989Z,97954.03
2022-11-21T03:49:09.278Z,97946.72
2022-11-21T03:51:38.355Z,97950.78
2022-11-21T03:54:07.383Z,97948.50
2022-11-21T03:56:36.358Z,97944.13
2022-11-21T03:59:05.314Z,97946.34
2022-11-21T04:01:36.778Z,97941.31
2022-11-21T04:04:07.292Z,97946.66
2022-11-21T04:06:36.323Z,97952.38
2022-11-21T04:09:04.626Z,97954.44
2022-11-21T04:11:33.099Z,97955.19
2022-11-21T04:14:01.263Z,97955.91
2022-11-21T04:16:29.508Z,97958.38
2022-11-21T04:18:58.201Z,97960.66
2022-11-21T04:21:28.330Z,97965.09
2022-11-21T04:23:56.911Z,97965.69
2022-11-21T04:26:25.412Z,97958.75
2022-11-21T04:28:53.859Z,97961.44
2022-11-21T04:31:22.312Z,97968.47
2022-11-21T04:33:50.759Z,97968.09
2022-11-21T04:36:19.258Z,97974.22
2022-11-21T04:38:50.560Z,97974.16
2022-11-21T04:41:19.005Z,97963.06
2022-11-21T04:43:47.201Z,97967.59
2022-11-21T04:46:15.671Z,97972.84
2022-11-21T04:48:43.959Z,97973.03
2022-11-21T04:51:12.171Z,97968.38
2022-11-21T04:53:43.083Z,97976.25
2022-11-21T04:56:16.563Z,97980.66
2022-11-21T04:58:46.766Z,97977.19
2022-11-21T05:01:15.113Z,97982.06
2022-11-21T05:03:43.302Z,97978.50
2022-11-21T05:06:12.104Z,97982.69
2022-11-21T05:08:40.783Z,97983.66
2022-11-21T05:11:26.657Z,97982.81
2022-11-21T05:13:56.665Z,97990.28
2022-11-21T05:16:25.110Z,97985.91
2022-11-21T05:18:53.589Z,97994.69
2022-11-21T05:21:22.044Z,97978.78
2022-11-21T05:23:50.847Z,97989.66
2022-11-21T05:26:18.926Z,97986.91
2022-11-21T05:28:47.945Z,97990.69
2022-11-21T05:31:18.042Z,97994.53
2022-11-21T05:33:46.613Z,97989.66
2022-11-21T05:36:15.028Z,97982.81
2022-11-21T05:38:43.610Z,97985.50
2022-11-21T05:41:12.325Z,97984.84
2022-11-21T05:43:49.123Z,97978.19
2022-11-21T05:46:20.668Z,97982.81
2022-11-21T05:48:50.622Z,97985.22
2022-11-21T05:51:19.700Z,97986.81
2022-11-21T05:53:49.536Z,97987.00
2022-11-21T05:56:19.599Z,97997.16
2022-11-21T05:58:48.070Z,97984.53
2022-11-21T06:01:36.763Z,97989.06
2022-11-21T06:04:05.776Z,97987.47
2022-11-21T06:06:34.578Z,97985.66
2022-11-21T06:09:03.363Z,97992.38
2022-11-21T06:11:32.959Z,97990.47
2022-11-21T06:14:01.536Z,97993.88
2022-11-21T06:16:29.985Z,97997.78
2022-11-21T06:18:59.018Z,98000.22
2022-11-21T06:21:31.000Z,97999.16
2022-11-21T06:24:00.402Z,98000.00
2022-11-21T06:26:29.433Z,98006.84
2022-11-21T06:28:58.010Z,97993.25
2022-11-21T06:31:28.232Z,98004.72
2022-11-21T06:33:58.398Z,97998.44
2022-11-21T06:36:29.145Z,98001.59
2022-11-21T06:38:57.851Z,98007.63
2022-11-21T06:41:30.408Z,98010.72
2022-11-21T06:44:00.416Z,98010.28
2022-11-21T06:46:28.546Z,98001.09
2022-11-21T06:48:57.022Z,98017.81
2022-11-21T06:51:26.156Z,98020.06
2022-11-21T06:53:58.099Z,98022.69
2022-11-21T06:56:27.079Z,98020.97
2022-11-21T06:58:56.069Z,98028.78
2022-11-21T07:01:27.022Z,98033.75
2022-11-21T07:03:56.561Z,98044.22
2022-11-21T07:06:25.711Z,98033.53
2022-11-21T07:09:25.221Z,98040.00
2022-11-21T07:11:45.135Z,98042.75
2022-11-21T07:14:13.918Z,98041.31
2022-11-21T07:16:42.433Z,98047.63
2022-11-21T07:19:12.255Z,98057.00
2022-11-21T07:21:40.421Z,98048.75
2022-11-21T07:24:10.887Z,98049.94
2022-11-21T07:26:39.252Z,98050.44
2022-11-21T07:29:07.516Z,98050.44
2022-11-21T07:31:35.689Z,98049.78
2022-11-21T07:34:04.126Z,98045.47
2022-11-21T07:36:33.486Z,98049.41
2022-11-21T07:39:01.984Z,98046.00
2022-11-21T07:41:32.340Z,98045.38
2022-11-21T07:44:00.783Z,98051.28
2022-11-21T07:46:29.294Z,98050.53
2022-11-21T07:49:02.934Z,98057.16
2022-11-21T07:51:32.075Z,98061.69
2022-11-21T07:54:03.437Z,98058.63
2022-11-21T07:56:33.281Z,98063.25
2022-11-21T07:59:01.559Z,98070.03
2022-11-21T08:01:30.062Z,98064.34
2022-11-21T08:03:58.260Z,98061.50
2022-11-21T08:06:26.753Z,98061.47
2022-11-21T08:08:55.959Z,98068.47
2022-11-21T08:11:24.375Z,98059.25
2022-11-21T08:13:55.149Z,98059.34
2022-11-21T08:16:28.260Z,98069.75
2022-11-21T08:18:57.203Z,98062.25
2022-11-21T08:21:25.425Z,98052.22
2022-11-21T08:23:54.007Z,98046.53
2022-11-21T08:26:22.891Z,98044.34
2022-11-21T08:28:55.568Z,98052.22
2022-11-21T08:31:28.827Z,98055.69
2022-11-21T08:33:58.165Z,98055.47
2022-11-21T08:36:28.215Z,98050.22
2022-11-21T08:38:58.645Z,98053.06
2022-11-21T08:41:43.813Z,98053.81
2022-11-21T08:44:14.208Z,98055.69
2022-11-21T08:46:46.520Z,98058.31
2022-11-21T08:49:15.548Z,98051.19
2022-11-21T08:51:43.698Z,98058.31
2022-11-21T08:54:12.185Z,98055.69
2022-11-21T08:56:40.729Z,98050.97
2022-11-21T08:59:09.309Z,98047.16
2022-11-21T09:01:37.923Z,98039.09
2022-11-21T09:04:08.703Z,98036.44
2022-11-21T09:06:37.999Z,98042.00
2022-11-21T09:09:07.900Z,98036.28
2022-11-21T09:11:37.802Z,98049.25
2022-11-21T09:14:23.613Z,98032.38
2022-11-21T09:17:09.305Z,98038.47
2022-11-21T09:19:39.214Z,98024.47
2022-11-21T09:22:07.957Z,98026.00
2022-11-21T09:24:36.268Z,98026.28
2022-11-21T09:27:05.039Z,98025.34
2022-11-21T09:29:33.189Z,98034.38
2022-11-21T09:32:01.695Z,98022.44
2022-11-21T09:34:33.122Z,98027.38
2022-11-21T09:37:03.623Z,98036.88
2022-11-21T09:39:32.285Z,98031.41
2022-11-21T09:42:16.805Z,98037.22
2022-11-21T09:45:00.749Z,98035.41
2022-11-21T09:47:30.793Z,98037.41
2022-11-21T09:50:03.018Z,98044.38
2022-11-21T09:52:42.861Z,98048.53
2022-11-21T09:55:22.726Z,98039.06
2022-11-21T09:57:53.894Z,98033.84
2022-11-21T10:00:26.018Z,98032.16
2022-11-21T10:02:54.982Z,98028.78
2022-11-21T10:05:34.795Z,98029.63
2022-11-21T10:08:14.922Z,98019.84
2022-11-21T10:10:57.226Z,98015.88
2022-11-21T10:13:39.675Z,98006.59
2022-11-21T10:16:17.495Z,98006.72
2022-11-21T10:19:04.390Z,98002.53
2022-11-21T10:22:01.547Z,98003.13
2022-11-21T10:24:46.333Z,98001.91
2022-11-21T10:27:20.142Z,98000.97
2022-11-21T10:29:55.214Z,98001.63
2022-11-21T10:32:27.926Z,97996.75
2022-11-21T10:35:01.644Z,97995.94
2022-11-21T10:37:36.542Z,97988.34
2022-11-21T10:40:27.663Z,97987.41
2022-11-21T10:42:59.998Z,97977.91
2022-11-21T10:45:27.367Z,97976.75
2022-11-21T10:47:55.574Z,97975.47
2022-11-21T10:50:39.813Z,97963.84
2022-11-21T10:53:34.223Z,97958.34
2022-11-21T10:56:08.593Z,97960.94
2022-11-21T10:58:42.923Z,97945.00
2022-11-21T11:01:26.035Z,97946.88
2022-11-21T11:04:32.102Z,97930.28
2022-11-21T11:07:24.715Z,97926.47
2022-11-21T11:09:54.051Z,97919.31
2022-11-21T11:12:47.542Z,97919.50
2022-11-21T11:15:22.020Z,97920.75
2022-11-21T11:17:56.499Z,97913.69
2022-11-21T11:20:34.352Z,97898.59
2022-11-21T11:23:18.089Z,97897.66
2022-11-21T11:25:48.998Z,97884.34
2022-11-21T11:28:20.199Z,97863.09
2022-11-21T11:30:51.173Z,97849.78
2022-11-21T11:33:34.541Z,97842.25
2022-11-21T11:36:22.216Z,97834.72
2022-11-21T11:38:55.095Z,97825.72
2022-11-21T11:42:30.685Z,97819.72
2022-11-21T11:45:33.600Z,97808.41
2022-11-21T11:48:03.480Z,97807.56
2022-11-21T11:50:37.446Z,97804.47
2022-11-21T11:53:12.835Z,97792.28
2022-11-21T11:55:46.968Z,97795.88
2022-11-21T11:58:23.495Z,97791.63
2022-11-21T12:01:01.585Z,97786.25
2022-11-21T12:03:41.344Z,97779.59
2022-11-21T12:06:17.734Z,97782.41
2022-11-21T12:08:53.756Z,97782.66
2022-11-21T12:11:49.329Z,97778.28
2022-11-21T12:14:56.005Z,97783.47
2022-11-21T12:17:39.138Z,97769.63
2022-11-21T12:20:17.824Z,97767.75
2022-11-21T12:22:48.713Z,97777.28
2022-11-21T12:25:17.871Z,97770.47
2022-11-21T12:27:52.263Z,97768.50
2022-11-21T12:30:45.504Z,97764.38
2022-11-21T12:33:22.443Z,97760.75
2022-11-21T12:36:18.828Z,97746.69
2022-11-21T12:38:59.841Z,97746.59
2022-11-21T12:41:51.695Z,97737.72
2022-11-21T12:44:38.604Z,97741.31
2022-11-21T12:47:29.400Z,97741.31
2022-11-21T12:50:24.570Z,97741.53
2022-11-21T12:53:19.903Z,97733.22
2022-11-21T12:55:49.315Z,97725.66
2022-11-21T12:58:30.512Z,97719.91
2022-11-21T13:01:21.447Z,97717.94
2022-11-21T13:03:56.946Z,97716.06
2022-11-21T13:06:30.198Z,97708.88
2022-11-21T13:09:02.622Z,97709.56
2022-11-21T13:12:00.551Z,97700.81
2022-11-21T13:14:42.164Z,97700.47
2022-11-21T13:17:36.210Z,97701.66
2022-11-21T13:20:14.757Z,97693.28
2022-11-21T13:22:59.274Z,97691.09
2022-11-21T13:25:39.932Z,97688.22
2022-11-21T13:28:34.640Z,97692.56
2022-11-21T13:31:07.060Z,97685.81
2022-11-21T13:33:57.438Z,97690.72
2022-11-21T13:36:43.815Z,97688.72
2022-11-21T13:39:35.626Z,97690.59
2022-11-21T13:42:26.019Z,97685.81
2022-11-21T13:44:54.422Z,97684.03
2022-11-21T13:47:56.637Z,97684.84
2022-11-21T13:50:42.571Z,97682.69
2022-11-21T13:53:26.357Z,97673.72
2022-11-21T13:56:01.354Z,97672.13
2022-11-21T13:58:48.790Z,97670.47
2022-11-21T14:01:44.064Z,97666.78
2022-11-21T14:04:38.056Z,97662.31
2022-11-21T14:07:26.835Z,97658.84
2022-11-21T14:09:57.549Z,97657.53
2022-11-21T14:12:34.577Z,97652.59
2022-11-21T14:15:24.000Z,97642.91
2022-11-21T14:17:55.244Z,97643.50
2022-11-21T14:20:28.281Z,97628.41
2022-11-21T14:23:00.231Z,97635.47
2022-11-21T14:25:37.439Z,97632.34
2022-11-21T14:28:12.571Z,97631.50
2022-11-21T14:30:42.666Z,97611.16
2022-11-21T14:33:37.965Z,97612.59
2022-11-21T14:36:10.307Z,97609.44
2022-11-21T14:39:02.161Z,97605.06
2022-11-21T14:41:40.065Z,97596.19
2022-11-21T14:44:18.321Z,97591.25
2022-11-21T14:46:48.130Z,97576.94
2022-11-21T14:49:30.540Z,97582.69
2022-11-21T14:52:16.885Z,97574.72
2022-11-21T14:55:14.982Z,97575.22
2022-11-21T14:57:43.019Z,97574.09
2022-11-21T15:03:21.041Z,97547.00
2022-11-21T15:06:08.372Z,97555.69
2022-11-21T15:11:36.637Z,97543.56
2022-11-21T15:14:22.966Z,97555.22
2022-11-21T15:16:55.723Z,97560.00
2022-11-21T15:19:27.391Z,97559.03
2022-11-21T15:21:59.407Z,97567.16
2022-11-21T15:24:36.486Z,97573.00
2022-11-21T15:27:30.546Z,97572.72
2022-11-21T15:30:22.412Z,97565.28
2022-11-21T15:33:08.166Z,97559.94
2022-11-21T15:35:51.123Z,97549.69
2022-11-21T15:38:28.550Z,97535.59
2022-11-21T15:40:59.220Z,97534.47
2022-11-21T15:43:43.915Z,97522.41
2022-11-21T15:46:18.010Z,97514.59
2022-11-21T15:48:49.360Z,97510.31
2022-11-21T15:51:27.197Z,97504.06
2022-11-21T15:54:08.121Z,97494.00
2022-11-21T15:56:38.125Z,97483.44
2022-11-21T15:59:06.764Z,97482.09
2022-11-21T16:01:37.216Z,97471.94
2022-11-21T16:04:11.160Z,97468.69
2022-11-21T16:06:39.751Z,97462.66
2022-11-21T16:09:10.662Z,97461.44
2022-11-21T16:11:43.645Z,97467.06
2022-11-21T16:14:20.947Z,97460.16
2022-11-21T16:16:53.470Z,97458.19
2022-11-21T16:19:23.715Z,97464.28
2022-11-21T16:21:53.769Z,97468.78
2022-11-21T16:24:22.831Z,97459.41
2022-11-21T16:26:55.292Z,97447.22
2022-11-21T16:29:26.670Z,97447.22
2022-11-21T16:31:57.698Z,97447.22
2022-11-21T16:34:27.790Z,97443.22
2022-11-21T16:36:57.239Z,97438.19
2022-11-21T16:39:29.199Z,97433.91
2022-11-21T16:41:57.880Z,97439.50
2022-11-21T16:44:28.213Z,97431.63
2022-11-21T16:47:07.825Z,97434.56
2022-11-21T16:49:43.195Z,97416.13
2022-11-21T16:52:11.673Z,97409.72
2022-11-21T16:54:40.226Z,97407.72
2022-11-21T16:57:08.971Z,97388.56
2022-11-21T16:59:38.416Z,97390.34
2022-11-21T17:02:07.221Z,97387.84
2022-11-21T17:04:36.117Z,97380.50
2022-11-21T17:07:08.388Z,97383.97
2022-11-21T17:09:37.391Z,97374.41
2022-11-21T17:12:08.779Z,97368.88
2022-11-21T17:14:39.086Z,97373.41
2022-11-21T17:17:08.110Z,97365.09
2022-11-21T17:19:36.299Z,97352.72
2022-11-21T17:22:05.252Z,97344.03
2022-11-21T17:24:35.511Z,97350.75
2022-11-21T17:27:04.373Z,97346.91
2022-11-21T17:29:35.898Z,97348.16
2022-11-21T17:32:05.693Z,97336.00
2022-11-21T17:34:36.997Z,97342.19
2022-11-21T17:37:09.223Z,97343.25
2022-11-21T17:39:40.506Z,97342.19
2022-11-21T17:42:11.693Z,97338.50
2022-11-21T17:44:41.567Z,97339.03
2022-11-21T17:47:10.291Z,97341.75
2022-11-21T17:49:41.083Z,97339.97
2022-11-21T17:52:10.675Z,97328.19
2022-11-21T17:54:43.833Z,97319.91
2022-11-21T17:57:12.322Z,97316.03
2022-11-21T17:59:47.071Z,97308.69
2022-11-21T18:02:18.994Z,97320.97
2022-11-21T18:04:49.039Z,97327.78
2022-11-21T18:07:18.058Z,97326.28
2022-11-21T18:09:49.416Z,97332.84
2022-11-21T18:12:19.822Z,97333.44
2022-11-21T18:14:49.388Z,97322.22
2022-11-21T18:17:20.798Z,97315.94
2022-11-21T18:19:52.361Z,97318.47
2022-11-21T18:22:29.216Z,97313.09
2022-11-21T18:25:01.495Z,97298.22
2022-11-21T18:27:30.401Z,97294.59
2022-11-21T18:29:59.938Z,97292.69
2022-11-21T18:32:29.545Z,97289.88
2022-11-21T18:34:58.401Z,97281.03
2022-11-21T18:37:27.274Z,97278.66
2022-11-21T18:39:58.191Z,97269.44
2022-11-21T18:42:28.350Z,97256.41
2022-11-21T18:44:56.500Z,97242.41
2022-11-21T18:47:25.915Z,97249.63
2022-11-21T18:49:54.638Z,97251.00
2022-11-21T18:52:24.582Z,97259.00
2022-11-21T18:54:54.102Z,97257.53
2022-11-21T18:57:22.538Z,97284.25
2022-11-21T18:59:52.455Z,97292.94
2022-11-21T19:02:20.856Z,97303.69
2022-11-21T19:04:49.524Z,97296.69
2022-11-21T19:07:20.612Z,97307.09
2022-11-21T19:09:48.797Z,97314.09
2022-11-21T19:12:17.874Z,97316.16
2022-11-21T19:14:46.233Z,97317.94
2022-11-21T19:17:17.078Z,97316.31
2022-11-21T19:19:46.828Z,97306.88
2022-11-21T19:22:15.180Z,97306.75
2022-11-21T19:24:45.783Z,97297.63
2022-11-21T19:27:24.473Z,97294.72
2022-11-21T19:29:55.379Z,97306.34
2022-11-21T19:32:27.566Z,97304.13
2022-11-21T19:34:56.323Z,97288.69
2022-11-21T19:37:24.849Z,97277.09
2022-11-21T19:39:54.664Z,97277.84
2022-11-21T19:42:24.358Z,97268.63
2022-11-21T19:44:52.980Z,97262.09
2022-11-21T19:47:21.402Z,97271.03
2022-11-21T19:49:53.996Z,97267.69
2022-11-21T19:52:27.767Z,97264.22
2022-11-21T19:54:57.228Z,97254.00
2022-11-21T19:57:25.743Z,97270.81
2022-11-21T19:59:54.211Z,97261.28
2022-11-21T20:02:23.056Z,97248.13
2022-11-21T20:04:54.398Z,97249.69
2022-11-21T20:07:24.908Z,97247.06
2022-11-21T20:09:53.862Z,97240.16
2022-11-21T20:12:22.244Z,97228.44
2022-11-21T20:14:50.546Z,97231.06
2022-11-21T20:17:19.610Z,97225.56
2022-11-21T20:19:50.518Z,97210.19
2022-11-21T20:22:20.936Z,97213.25
2022-11-21T20:24:51.855Z,97201.75
2022-11-21T20:27:20.874Z,97194.31
2022-11-21T20:29:49.072Z,97196.34
2022-11-21T20:32:17.190Z,97194.28
2022-11-21T20:34:48.073Z,97191.31
2022-11-21T20:37:16.507Z,97181.56
2022-11-21T20:39:49.645Z,97184.44
2022-11-21T20:42:18.232Z,97174.28
2022-11-21T20:47:38.812Z,97171.31
2022-11-21T20:50:08.141Z,97171.88
2022-11-21T20:55:28.037Z,97174.28
2022-11-21T20:57:56.170Z,97177.53
2022-11-21T21:00:24.930Z,97167.25
2022-11-21T21:02:53.393Z,97170.34
2022-11-21T21:05:22.593Z,97164.16
2022-11-21T21:07:52.951Z,97166.06
2022-11-21T21:10:25.548Z,97167.75
2022-11-21T21:12:55.430Z,97159.75
2022-11-21T21:15:23.705Z,97149.00
2022-11-21T21:17:52.399Z,97150.19
2022-11-21T21:20:20.994Z,97130.97
2022-11-21T21:22:49.461Z,97129.19
2022-11-21T21:25:18.059Z,97121.91
2022-11-21T21:27:50.527Z,97131.56
2022-11-21T21:30:21.606Z,97123.13
2022-11-21T21:32:50.606Z,97120.63
2022-11-21T21:35:19.143Z,97119.06
2022-11-21T21:37:48.561Z,97127.31
2022-11-21T21:40:18.317Z,97119.78
2022-11-21T21:42:48.423Z,97121.34
2022-11-21T21:45:16.710Z,97113.19
2022-11-21T21:47:46.992Z,97117.88
2022-11-21T21:50:16.143Z,97111.53
2022-11-21T21:52:44.683Z,97107.59
2022-11-21T21:55:12.856Z,97103.78
2022-11-21T21:57:45.131Z,97105.44
2022-11-21T22:00:16.944Z,97106.19
2022-11-21T22:02:47.452Z,97113.34
2022-11-21T22:05:15.926Z,97118.47
2022-11-21T22:07:44.147Z,97113.47
2022-11-21T22:10:13.525Z,97106.28
2022-11-21T22:12:44.282Z,97106.41
2022-11-21T22:15:12.978Z,97116.56
2022-11-21T22:17:41.207Z,97110.56
2022-11-21T22:20:12.294Z,97104.03
2022-11-21T22:22:45.226Z,97105.56
2022-11-21T22:25:15.692Z,97107.72
2022-11-21T22:27:46.354Z,97117.38
2022-11-21T22:30:15.066Z,97115.50
2022-11-21T22:32:45.249Z,97109.28
2022-11-21T22:35:15.519Z,97111.63
2022-11-21T22:37:44.428Z,97115.69
2022-11-21T22:40:14.505Z,97112.88
2022-11-21T22:42:42.625Z,97102.69
2022-11-21T22:45:11.967Z,97108.06
2022-11-21T22:47:46.441Z,97112.22
2022-11-21T22:50:19.030Z,97101.84
2022-11-21T22:52:48.041Z,97111.25
2022-11-21T22:55:16.838Z,97108.63
2022-11-21T22:57:46.620Z,97115.94
2022-11-21T23:00:16.121Z,97116.63
2022-11-21T23:02:44.783Z,97114.72
2022-11-21T23:05:13.085Z,97111.63
2022-11-21T23:07:44.501Z,97114.59
2022-11-21T23:10:13.220Z,97119.59
2022-11-21T23:12:42.277Z,97114.00
2022-11-21T23:15:12.002Z,97113.75
2022-11-21T23:17:41.705Z,97111.63
2022-11-21T23:20:11.320Z,97103.75
2022-11-21T23:22:39.755Z,97097.03
2022-11-21T23:25:11.659Z,97097.28
2022-11-21T23:27:40.116Z,97094.53
2022-11-21T23:30:11.386Z,97093.47
2022-11-21T23:32:40.020Z,97101.59
2022-11-21T23:35:09.377Z,97100.75
2022-11-21T23:37:39.999Z,97092.75
2022-11-21T23:40:12.059Z,97093.47
2022-11-21T23:42:40.359Z,97096.56
2022-11-21T23:45:10.184Z,97103.13
2022-11-21T23:47:38.335Z,97101.47
2022-11-21T23:50:07.764Z,97102.16
2022-11-21T23:52:36.790Z,97091.66
2022-11-21T23:55:05.348Z,97102.16
2022-11-21T23:57:35.927Z,97091.41
